Terminal Aerodrome Forecast
Issued by NWS

Home | Current Version | Previous Version | Graphics & Text | Print | Product List | Glossary On
Versions: 1 2 3 4 5 6 7 8 9 10 11 12 13 14 15 16
000
FTUS43 KGRB 151720
TAFMTW
TAF
KMTW 151720Z 1518/1618 26007KT P6SM SCT250
     FM160100 24005KT P6SM SCT250
      TEMPO 1610/1614 6SM BR
     FM161500 23005KT P6SM SCT120 BKN200=

USA.gov is the U.S. government's official web portal to all federal, state and local government web resources and services.